Time;durP1;ratioP1;P1;durP2;ratioP2;P2;SDS_P1;SDS_P2;PMS_P1;PMS_P2;Temp;Humidity;BMP_temperature;BMP_pressure;BME280_temperature;BME280_humidity;BME280_pressure;Samples;Min_cycle;Max_cycle;Signal;HPM_P1;HPM_P2
2022/04/24 00:00:05;;;;;;;6.03;3.63;;;;;;;;;;4974014;28;20177;-42
2022/04/24 00:02:32;;;;;;;10.17;5.10;;;;;;;;;;4973958;28;20577;-41
2022/04/24 00:04:58;;;;;;;5.60;3.90;;;;;;;;;;4970752;28;20240;-40
2022/04/24 00:07:24;;;;;;;7.27;4.17;;;;;;;;;;4973879;28;20181;-40
2022/04/24 00:09:50;;;;;;;8.27;4.73;;;;;;;;;;4978484;28;20744;-41
2022/04/24 00:12:18;;;;;;;9.33;4.93;;;;;;;;;;4973934;28;20758;-39
2022/04/24 00:14:44;;;;;;;6.07;3.87;;;;;;;;;;4975799;28;20177;-41
2022/04/24 00:17:10;;;;;;;7.27;4.97;;;;;;;;;;4974193;28;20880;-40
2022/04/24 00:19:36;;;;;;;6.73;4.53;;;;;;;;;;4976943;28;20907;-41
2022/04/24 00:22:02;;;;;;;8.47;4.37;;;;;;;;;;4974223;28;20286;-41
2022/04/24 00:24:28;;;;;;;7.27;4.40;;;;;;;;;;4973760;28;20498;-41
2022/04/24 00:26:55;;;;;;;3.50;3.20;;;;;;;;;;4970910;28;20182;-41
2022/04/24 00:29:21;;;;;;;5.67;3.97;;;;;;;;;;4974081;28;20267;-41
2022/04/24 00:31:47;;;;;;;5.90;3.43;;;;;;;;;;4975099;28;20383;-40
2022/04/24 00:34:13;;;;;;;5.30;3.40;;;;;;;;;;4971692;28;21758;-41
2022/04/24 00:36:39;;;;;;;4.57;3.33;;;;;;;;;;5005500;28;20201;-41
2022/04/24 00:39:06;;;;;;;4.13;3.10;;;;;;;;;;4974301;28;20240;-43
2022/04/24 00:41:32;;;;;;;3.93;3.43;;;;;;;;;;4974231;28;20938;-41
2022/04/24 00:43:58;;;;;;;5.93;3.80;;;;;;;;;;4976351;28;20173;-42
2022/04/24 00:46:40;;;;;;;7.10;3.53;;;;;;;;;;4972506;28;20188;-42
2022/04/24 00:49:06;;;;;;;3.77;3.13;;;;;;;;;;4975381;28;20687;-41
2022/04/24 00:51:33;;;;;;;4.67;2.70;;;;;;;;;;4974150;28;20277;-41
2022/04/24 00:54:00;;;;;;;4.70;2.93;;;;;;;;;;4971529;28;20292;-41
2022/04/24 00:56:30;;;;;;;3.23;2.60;;;;;;;;;;4973069;28;20692;-42
2022/04/24 00:58:58;;;;;;;3.00;2.70;;;;;;;;;;4972666;28;20235;-41
2022/04/24 01:01:24;;;;;;;5.17;3.30;;;;;;;;;;4973914;28;20259;-42
2022/04/24 01:03:50;;;;;;;6.27;4.20;;;;;;;;;;4971959;28;20270;-41
2022/04/24 01:06:16;;;;;;;3.63;3.30;;;;;;;;;;4972470;28;20178;-42
2022/04/24 01:08:43;;;;;;;5.80;4.90;;;;;;;;;;4975057;28;20662;-42
2022/04/24 01:11:09;;;;;;;5.17;4.10;;;;;;;;;;4970003;28;20244;-42
2022/04/24 01:13:35;;;;;;;6.50;4.40;;;;;;;;;;4971084;28;20602;-41
2022/04/24 01:16:01;;;;;;;5.20;4.60;;;;;;;;;;4968943;28;20772;-42
2022/04/24 01:18:27;;;;;;;8.57;6.20;;;;;;;;;;4975650;28;20780;-42
2022/04/24 01:20:53;;;;;;;8.03;6.33;;;;;;;;;;4971901;28;20598;-42
2022/04/24 01:23:19;;;;;;;7.53;5.77;;;;;;;;;;4974349;28;20763;-41
2022/04/24 01:25:46;;;;;;;9.17;6.00;;;;;;;;;;4971540;28;20178;-42
2022/04/24 01:28:12;;;;;;;6.43;4.97;;;;;;;;;;4971512;28;20288;-42
2022/04/24 01:30:38;;;;;;;6.90;5.83;;;;;;;;;;4976063;28;20652;-42
2022/04/24 01:33:06;;;;;;;7.30;6.17;;;;;;;;;;4973614;28;20530;-43
2022/04/24 01:35:32;;;;;;;8.80;5.77;;;;;;;;;;5001364;28;20192;-42
2022/04/24 01:37:58;;;;;;;9.07;5.40;;;;;;;;;;4972418;28;20209;-42
2022/04/24 01:40:25;;;;;;;8.90;7.30;;;;;;;;;;4969798;28;20464;-40
2022/04/24 01:42:51;;;;;;;8.87;5.70;;;;;;;;;;4971703;28;20717;-42
2022/04/24 01:45:18;;;;;;;7.27;5.83;;;;;;;;;;4971878;28;20988;-41
2022/04/24 01:47:44;;;;;;;5.50;4.90;;;;;;;;;;4973073;28;20460;-42
2022/04/24 01:50:10;;;;;;;9.50;7.40;;;;;;;;;;4970629;28;20193;-40
2022/04/24 01:52:36;;;;;;;8.70;6.97;;;;;;;;;;4973517;28;20399;-42
2022/04/24 01:55:02;;;;;;;9.90;7.60;;;;;;;;;;4971995;28;20443;-44
2022/04/24 01:57:28;;;;;;;7.00;5.80;;;;;;;;;;4976437;28;21193;-42
2022/04/24 01:59:54;;;;;;;8.53;6.40;;;;;;;;;;4977132;28;20496;-41
2022/04/24 02:02:20;;;;;;;9.47;7.00;;;;;;;;;;4977315;28;20204;-42
2022/04/24 02:04:46;;;;;;;7.10;6.00;;;;;;;;;;4972470;28;20178;-41
2022/04/24 02:07:12;;;;;;;10.30;6.53;;;;;;;;;;4976310;28;20185;-42
2022/04/24 02:09:40;;;;;;;7.10;5.70;;;;;;;;;;4979420;28;20656;-40
2022/04/24 02:12:06;;;;;;;7.00;6.23;;;;;;;;;;4973485;28;20177;-42
2022/04/24 02:14:32;;;;;;;6.87;6.20;;;;;;;;;;4971673;28;20195;-42
2022/04/24 02:16:59;;;;;;;8.90;7.20;;;;;;;;;;4972709;28;20207;-41
2022/04/24 02:19:25;;;;;;;7.23;5.63;;;;;;;;;;4975187;28;20206;-42
2022/04/24 02:21:51;;;;;;;6.97;5.17;;;;;;;;;;4974946;28;20214;-41
2022/04/24 02:24:17;;;;;;;6.53;5.17;;;;;;;;;;4973170;28;20176;-42
2022/04/24 02:26:43;;;;;;;8.47;6.03;;;;;;;;;;4978409;28;20181;-42
2022/04/24 02:29:09;;;;;;;8.33;7.10;;;;;;;;;;4973494;28;20375;-42
2022/04/24 02:31:35;;;;;;;10.30;8.20;;;;;;;;;;4975669;28;20200;-41
2022/04/24 02:34:02;;;;;;;10.30;8.33;;;;;;;;;;4976241;28;20232;-41
2022/04/24 02:36:28;;;;;;;9.80;8.80;;;;;;;;;;4980015;28;20497;-40
2022/04/24 02:38:54;;;;;;;10.67;6.97;;;;;;;;;;4975394;28;20201;-42
2022/04/24 02:41:20;;;;;;;8.50;7.30;;;;;;;;;;4975045;28;20435;-40
2022/04/24 02:43:46;;;;;;;10.37;7.40;;;;;;;;;;4984627;28;20851;-40
2022/04/24 02:46:12;;;;;;;11.37;7.23;;;;;;;;;;4978748;28;20419;-41
2022/04/24 02:48:38;;;;;;;8.60;7.23;;;;;;;;;;4980271;28;20584;-42
2022/04/24 02:51:04;;;;;;;10.80;7.77;;;;;;;;;;4979937;28;20355;-40
2022/04/24 02:53:30;;;;;;;7.00;6.03;;;;;;;;;;4982771;28;20195;-41
2022/04/24 02:55:57;;;;;;;6.50;5.73;;;;;;;;;;4979036;28;20209;-41
2022/04/24 02:58:23;;;;;;;9.37;6.93;;;;;;;;;;4972998;28;20900;-41
2022/04/24 03:00:54;;;;;;;6.80;6.10;;;;;;;;;;4980771;28;20308;-41
2022/04/24 03:03:20;;;;;;;8.97;7.03;;;;;;;;;;4980518;28;20541;-40
2022/04/24 03:05:50;;;;;;;8.07;7.27;;;;;;;;;;4972589;28;20224;-40
2022/04/24 03:08:16;;;;;;;6.77;6.17;;;;;;;;;;4974949;28;20883;-42
2022/04/24 03:10:43;;;;;;;7.23;5.27;;;;;;;;;;4978257;28;20529;-42
2022/04/24 03:13:10;;;;;;;7.80;6.03;;;;;;;;;;4974242;28;20406;-41
2022/04/24 03:15:37;;;;;;;6.87;5.40;;;;;;;;;;4975265;28;20173;-40
2022/04/24 03:18:04;;;;;;;5.93;5.17;;;;;;;;;;4975592;28;20760;-40
2022/04/24 03:20:30;;;;;;;5.80;5.30;;;;;;;;;;4976285;28;20738;-41
2022/04/24 03:22:56;;;;;;;5.97;5.37;;;;;;;;;;4978076;28;21138;-40
2022/04/24 03:25:23;;;;;;;7.00;5.17;;;;;;;;;;4975819;28;20173;-42
2022/04/24 03:27:49;;;;;;;6.27;4.60;;;;;;;;;;4974058;28;20235;-42
2022/04/24 03:30:15;;;;;;;5.77;4.90;;;;;;;;;;4976763;28;20486;-43
2022/04/24 03:32:41;;;;;;;7.07;5.03;;;;;;;;;;4979524;28;20813;-42
2022/04/24 03:35:09;;;;;;;7.73;5.47;;;;;;;;;;4975791;28;21115;-41
2022/04/24 03:37:36;;;;;;;6.07;5.47;;;;;;;;;;4977280;28;20746;-41
2022/04/24 03:40:03;;;;;;;7.23;6.40;;;;;;;;;;4978875;28;20450;-40
2022/04/24 03:42:29;;;;;;;9.93;5.67;;;;;;;;;;4977745;28;20956;-44
2022/04/24 03:44:56;;;;;;;8.27;6.97;;;;;;;;;;4975177;28;20288;-41
2022/04/24 03:47:22;;;;;;;5.17;4.33;;;;;;;;;;4977587;28;20942;-42
2022/04/24 03:49:48;;;;;;;7.67;5.10;;;;;;;;;;4973380;28;20169;-42
2022/04/24 03:52:14;;;;;;;8.27;6.93;;;;;;;;;;4979306;28;20252;-40
2022/04/24 03:54:40;;;;;;;9.70;7.20;;;;;;;;;;4980286;28;20512;-40
2022/04/24 03:57:07;;;;;;;6.50;5.30;;;;;;;;;;4976439;28;20430;-42
2022/04/24 03:59:33;;;;;;;6.13;5.23;;;;;;;;;;4974850;28;21117;-42
2022/04/24 04:02:00;;;;;;;5.80;5.20;;;;;;;;;;4975357;28;20546;-41
2022/04/24 04:04:27;;;;;;;6.13;5.30;;;;;;;;;;4976000;28;20431;-40
2022/04/24 04:06:53;;;;;;;6.57;5.90;;;;;;;;;;4976994;28;20278;-41
2022/04/24 04:09:19;;;;;;;5.63;5.13;;;;;;;;;;4975307;28;20664;-41
2022/04/24 04:11:45;;;;;;;6.73;5.50;;;;;;;;;;4974071;28;20177;-41
2022/04/24 04:14:12;;;;;;;9.87;7.17;;;;;;;;;;4978410;28;20436;-40
2022/04/24 04:16:38;;;;;;;10.50;7.57;;;;;;;;;;4977413;28;20446;-42
2022/04/24 04:19:04;;;;;;;7.00;4.93;;;;;;;;;;4973623;28;20194;-42
2022/04/24 04:21:30;;;;;;;5.93;5.33;;;;;;;;;;4975730;28;21019;-41
2022/04/24 04:23:56;;;;;;;6.87;6.00;;;;;;;;;;4978006;28;20416;-42
2022/04/24 04:26:22;;;;;;;7.10;5.93;;;;;;;;;;4975598;28;21208;-42
2022/04/24 04:28:50;;;;;;;6.53;5.90;;;;;;;;;;4976018;28;21320;-42
2022/04/24 04:31:17;;;;;;;11.47;7.93;;;;;;;;;;4976362;28;20428;-41
2022/04/24 04:33:43;;;;;;;10.67;7.90;;;;;;;;;;4975386;28;20438;-40
2022/04/24 04:36:10;;;;;;;13.97;10.33;;;;;;;;;;4975255;28;21051;-43
2022/04/24 04:38:36;;;;;;;10.33;9.33;;;;;;;;;;4974619;28;20466;-40
2022/04/24 04:41:03;;;;;;;14.37;11.10;;;;;;;;;;4977042;28;20848;-42
2022/04/24 04:43:29;;;;;;;13.33;11.53;;;;;;;;;;4979454;28;20499;-42
2022/04/24 04:45:55;;;;;;;13.17;11.87;;;;;;;;;;4974773;28;20963;-40
2022/04/24 04:48:21;;;;;;;15.67;10.93;;;;;;;;;;4973826;28;20440;-41
2022/04/24 04:50:47;;;;;;;15.63;13.30;;;;;;;;;;4975667;28;20475;-42
2022/04/24 04:53:13;;;;;;;18.63;14.37;;;;;;;;;;4979729;28;20915;-40
2022/04/24 04:55:40;;;;;;;14.67;12.20;;;;;;;;;;4971334;28;20439;-42
2022/04/24 04:58:06;;;;;;;12.60;11.30;;;;;;;;;;4976741;28;20957;-42
2022/04/24 05:00:32;;;;;;;11.87;10.67;;;;;;;;;;4978474;28;20423;-40
2022/04/24 05:02:58;;;;;;;12.40;10.43;;;;;;;;;;4974395;28;20979;-41
2022/04/24 05:05:24;;;;;;;15.07;10.57;;;;;;;;;;4972262;28;20412;-42
2022/04/24 05:07:51;;;;;;;12.30;10.87;;;;;;;;;;4975657;28;20711;-42
2022/04/24 05:10:17;;;;;;;10.50;8.90;;;;;;;;;;4975958;28;21328;-42
2022/04/24 05:12:43;;;;;;;15.87;10.80;;;;;;;;;;4971360;28;20428;-42
2022/04/24 05:15:13;;;;;;;11.50;8.73;;;;;;;;;;4974388;28;21380;-42
2022/04/24 05:17:39;;;;;;;13.33;8.20;;;;;;;;;;4979061;28;20974;-41
2022/04/24 05:20:06;;;;;;;14.67;8.60;;;;;;;;;;4973125;28;20177;-42
2022/04/24 05:22:32;;;;;;;12.43;9.33;;;;;;;;;;4972320;28;20880;-41
2022/04/24 05:24:58;;;;;;;11.63;8.67;;;;;;;;;;4974779;28;20428;-42
2022/04/24 05:27:24;;;;;;;13.00;8.90;;;;;;;;;;4976524;28;20804;-43
2022/04/24 05:29:51;;;;;;;8.93;7.40;;;;;;;;;;4974583;28;20200;-44
2022/04/24 05:32:17;;;;;;;9.70;7.17;;;;;;;;;;4974820;28;20956;-44
2022/04/24 05:34:43;;;;;;;7.60;6.83;;;;;;;;;;4974239;28;20507;-44
2022/04/24 05:37:09;;;;;;;10.80;7.27;;;;;;;;;;4972797;28;20546;-43
2022/04/24 05:39:36;;;;;;;8.70;6.17;;;;;;;;;;4977847;28;21026;-44
2022/04/24 05:42:02;;;;;;;8.10;6.73;;;;;;;;;;4975053;28;20177;-44
2022/04/24 05:44:28;;;;;;;8.47;6.60;;;;;;;;;;4974609;28;20170;-44
2022/04/24 05:46:54;;;;;;;9.50;7.13;;;;;;;;;;4972745;28;20644;-43
2022/04/24 05:49:20;;;;;;;7.53;6.20;;;;;;;;;;4974595;28;20427;-44
2022/04/24 05:51:46;;;;;;;8.53;5.93;;;;;;;;;;4973463;28;20192;-44
2022/04/24 05:54:12;;;;;;;10.80;6.63;;;;;;;;;;4973583;28;20263;-44
2022/04/24 05:56:38;;;;;;;7.50;6.23;;;;;;;;;;4975074;28;20177;-42
2022/04/24 05:59:05;;;;;;;8.20;6.40;;;;;;;;;;4979521;28;20307;-42
2022/04/24 06:01:31;;;;;;;6.10;5.27;;;;;;;;;;4978580;28;21167;-44
2022/04/24 06:03:57;;;;;;;9.80;5.93;;;;;;;;;;4975245;28;20243;-43
2022/04/24 06:06:23;;;;;;;7.00;4.80;;;;;;;;;;4974296;28;20597;-43
2022/04/24 06:08:50;;;;;;;8.03;4.90;;;;;;;;;;4974901;28;21388;-43
2022/04/24 06:11:17;;;;;;;8.43;5.67;;;;;;;;;;4977385;28;20320;-44
2022/04/24 06:13:45;;;;;;;5.43;4.90;;;;;;;;;;4972715;28;20180;-42
2022/04/24 06:16:11;;;;;;;6.37;4.13;;;;;;;;;;4971656;28;20488;-44
2022/04/24 06:18:38;;;;;;;7.57;2.80;;;;;;;;;;5003142;28;20575;-43
2022/04/24 06:21:04;;;;;;;6.27;2.70;;;;;;;;;;4975592;28;20255;-44
2022/04/24 06:23:31;;;;;;;3.40;2.30;;;;;;;;;;4973480;28;20181;-44
2022/04/24 06:25:58;;;;;;;3.77;2.03;;;;;;;;;;4974002;28;20198;-44
2022/04/24 06:28:24;;;;;;;5.33;1.70;;;;;;;;;;4970884;28;20184;-45
2022/04/24 06:30:50;;;;;;;2.93;2.07;;;;;;;;;;4974065;28;20432;-44
2022/04/24 06:33:17;;;;;;;7.00;2.73;;;;;;;;;;4973276;28;20460;-44
2022/04/24 06:35:47;;;;;;;8.47;3.23;;;;;;;;;;4973418;28;20174;-44
2022/04/24 06:38:13;;;;;;;8.87;3.43;;;;;;;;;;4972728;28;20248;-44
2022/04/24 06:40:39;;;;;;;7.77;3.40;;;;;;;;;;4971908;28;20250;-44
2022/04/24 06:43:07;;;;;;;7.20;2.47;;;;;;;;;;4976135;28;20173;-44
2022/04/24 06:45:40;;;;;;;4.37;1.97;;;;;;;;;;5011087;28;20284;-45
2022/04/24 06:48:09;;;;;;;4.13;1.77;;;;;;;;;;4978802;28;20247;-43
2022/04/24 06:50:36;;;;;;;4.87;1.60;;;;;;;;;;4978170;28;20525;-45
2022/04/24 06:53:03;;;;;;;8.93;2.53;;;;;;;;;;4976492;28;20193;-45
2022/04/24 06:55:30;;;;;;;6.33;2.23;;;;;;;;;;4978919;28;20180;-43
2022/04/24 06:57:57;;;;;;;4.27;1.83;;;;;;;;;;4977493;28;20235;-43
2022/04/24 07:00:24;;;;;;;5.23;1.90;;;;;;;;;;4980175;28;20500;-41
2022/04/24 07:02:51;;;;;;;5.73;2.07;;;;;;;;;;4978382;28;20360;-41
2022/04/24 07:05:17;;;;;;;4.67;2.37;;;;;;;;;;4980279;28;20591;-40
2022/04/24 07:07:43;;;;;;;5.00;2.20;;;;;;;;;;4981084;28;21016;-39
2022/04/24 07:10:10;;;;;;;7.53;2.50;;;;;;;;;;4982247;28;20178;-41
2022/04/24 07:12:45;;;;;;;5.87;2.20;;;;;;;;;;4982442;28;20238;-39
2022/04/24 07:15:11;;;;;;;4.07;2.20;;;;;;;;;;4980983;28;20520;-41
2022/04/24 07:17:37;;;;;;;6.90;2.80;;;;;;;;;;4979347;28;20187;-42
2022/04/24 07:20:03;;;;;;;5.27;2.27;;;;;;;;;;4977272;28;20187;-42
2022/04/24 07:22:30;;;;;;;7.37;3.17;;;;;;;;;;4979977;28;20196;-42
2022/04/24 07:24:59;;;;;;;8.07;2.93;;;;;;;;;;4983358;28;20165;-42
2022/04/24 07:27:28;;;;;;;4.33;2.90;;;;;;;;;;4977950;28;20267;-41
2022/04/24 07:29:54;;;;;;;5.77;3.13;;;;;;;;;;4981467;28;20465;-40
2022/04/24 07:32:21;;;;;;;6.70;3.57;;;;;;;;;;4982116;28;20184;-41
2022/04/24 07:34:47;;;;;;;5.93;2.93;;;;;;;;;;4979723;28;20219;-41
2022/04/24 07:37:13;;;;;;;8.50;3.60;;;;;;;;;;4974614;28;20196;-40
2022/04/24 07:39:39;;;;;;;7.97;2.70;;;;;;;;;;4978897;28;20449;-41
2022/04/24 07:42:08;;;;;;;6.30;2.90;;;;;;;;;;4980761;28;20220;-39
2022/04/24 07:44:35;;;;;;;5.30;2.40;;;;;;;;;;4981476;28;20184;-41
2022/04/24 07:47:01;;;;;;;6.57;2.67;;;;;;;;;;4982339;28;20181;-40
2022/04/24 07:49:27;;;;;;;5.13;2.50;;;;;;;;;;4979326;28;20274;-41
2022/04/24 07:51:54;;;;;;;4.17;2.40;;;;;;;;;;4978855;28;20204;-42
2022/04/24 07:54:20;;;;;;;3.93;2.30;;;;;;;;;;4980005;28;20509;-40
2022/04/24 07:56:46;;;;;;;5.67;2.50;;;;;;;;;;4980134;28;20182;-42
2022/04/24 07:59:12;;;;;;;5.90;2.10;;;;;;;;;;4978644;28;20200;-38
2022/04/24 08:01:38;;;;;;;5.00;2.30;;;;;;;;;;4979806;28;20248;-39
2022/04/24 08:04:04;;;;;;;6.20;2.10;;;;;;;;;;4978065;28;20518;-40
2022/04/24 08:06:30;;;;;;;4.47;1.80;;;;;;;;;;4977757;28;20172;-41
2022/04/24 08:08:57;;;;;;;3.40;1.70;;;;;;;;;;4976402;28;20189;-40
2022/04/24 08:11:23;;;;;;;3.00;1.70;;;;;;;;;;4974936;28;20204;-38
2022/04/24 08:13:49;;;;;;;3.77;1.60;;;;;;;;;;4979413;28;20711;-41
2022/04/24 08:16:15;;;;;;;2.90;1.30;;;;;;;;;;4979481;28;20193;-43
2022/04/24 08:18:41;;;;;;;2.37;1.43;;;;;;;;;;4977238;28;20510;-40
2022/04/24 08:21:07;;;;;;;2.37;1.50;;;;;;;;;;4971321;28;20185;-39
2022/04/24 08:23:35;;;;;;;2.37;1.37;;;;;;;;;;4977762;28;21050;-40
2022/04/24 08:26:01;;;;;;;3.20;1.30;;;;;;;;;;4978726;28;20177;-41
2022/04/24 08:28:27;;;;;;;3.10;1.20;;;;;;;;;;4978338;28;20184;-40
2022/04/24 08:30:54;;;;;;;2.03;1.03;;;;;;;;;;4977286;28;20428;-41
2022/04/24 08:33:20;;;;;;;2.23;1.10;;;;;;;;;;4980719;28;20461;-37
2022/04/24 08:35:48;;;;;;;2.40;1.10;;;;;;;;;;4975249;28;20189;-39
2022/04/24 08:38:14;;;;;;;1.93;1.00;;;;;;;;;;4975177;28;20585;-41
2022/04/24 08:40:41;;;;;;;2.60;1.33;;;;;;;;;;4977265;28;20184;-40
2022/04/24 08:43:07;;;;;;;2.33;1.33;;;;;;;;;;4977450;28;20419;-41
2022/04/24 08:45:34;;;;;;;5.40;1.57;;;;;;;;;;4978376;28;20664;-40
2022/04/24 08:48:02;;;;;;;3.63;1.40;;;;;;;;;;4974568;28;20424;-41
2022/04/24 08:50:29;;;;;;;2.90;1.40;;;;;;;;;;4975586;28;20185;-41
2022/04/24 08:52:59;;;;;;;3.10;1.50;;;;;;;;;;4975075;28;20635;-39
2022/04/24 08:55:26;;;;;;;4.03;1.67;;;;;;;;;;4976824;28;21061;-39
2022/04/24 08:57:52;;;;;;;3.07;1.70;;;;;;;;;;4975113;28;20212;-40
2022/04/24 09:00:21;;;;;;;4.90;2.17;;;;;;;;;;4980274;28;20245;-41
2022/04/24 09:02:48;;;;;;;4.50;3.10;;;;;;;;;;4980872;28;20292;-40
2022/04/24 09:05:14;;;;;;;8.33;3.73;;;;;;;;;;4977014;28;20177;-41
2022/04/24 09:07:43;;;;;;;5.17;3.13;;;;;;;;;;4976366;28;20724;-40
2022/04/24 09:10:12;;;;;;;4.23;3.00;;;;;;;;;;4973767;28;20617;-40
2022/04/24 09:12:39;;;;;;;5.20;2.90;;;;;;;;;;4972670;28;20832;-40
2022/04/24 09:15:05;;;;;;;5.17;3.30;;;;;;;;;;4975697;28;20565;-40
2022/04/24 09:17:32;;;;;;;4.00;2.90;;;;;;;;;;4974103;28;20533;-37
2022/04/24 09:19:59;;;;;;;5.33;2.80;;;;;;;;;;4979023;28;20435;-41
2022/04/24 09:22:25;;;;;;;4.53;2.23;;;;;;;;;;4978329;28;20188;-38
2022/04/24 09:24:55;;;;;;;2.57;2.00;;;;;;;;;;4973764;28;20407;-40
2022/04/24 09:27:32;;;;;;;2.83;2.17;;;;;;;;;;4971538;28;20183;-41
2022/04/24 09:30:05;;;;;;;4.73;2.60;;;;;;;;;;4973685;28;20184;-40
2022/04/24 09:32:37;;;;;;;4.30;3.10;;;;;;;;;;4975332;28;20174;-40
2022/04/24 09:35:03;;;;;;;4.73;3.80;;;;;;;;;;4972019;28;20635;-41
2022/04/24 09:37:39;;;;;;;5.73;4.20;;;;;;;;;;4970122;28;20440;-40
2022/04/24 09:40:05;;;;;;;7.63;6.27;;;;;;;;;;4974267;28;20991;-41
2022/04/24 09:42:31;;;;;;;6.03;4.67;;;;;;;;;;4972291;28;21324;-40
2022/04/24 09:44:57;;;;;;;7.47;5.17;;;;;;;;;;4974285;28;20431;-39
2022/04/24 09:47:25;;;;;;;8.67;4.93;;;;;;;;;;4973859;28;21218;-41
2022/04/24 09:49:51;;;;;;;8.40;4.50;;;;;;;;;;4976118;28;20462;-40
2022/04/24 09:52:19;;;;;;;6.60;3.47;;;;;;;;;;4972834;28;20243;-41
2022/04/24 09:54:46;;;;;;;4.23;3.10;;;;;;;;;;4975419;28;20427;-40
2022/04/24 09:57:13;;;;;;;2.73;2.13;;;;;;;;;;4975057;28;20521;-40
2022/04/24 09:59:41;;;;;;;1.77;1.67;;;;;;;;;;4978194;28;20671;-40
2022/04/24 10:02:08;;;;;;;2.80;1.70;;;;;;;;;;4973338;28;20529;-40
2022/04/24 10:04:35;;;;;;;2.97;2.20;;;;;;;;;;4976461;28;20922;-42
2022/04/24 10:07:02;;;;;;;1.67;1.40;;;;;;;;;;4976882;28;20423;-41
2022/04/24 10:09:29;;;;;;;2.90;1.77;;;;;;;;;;4976229;28;20418;-41
2022/04/24 10:11:55;;;;;;;3.67;1.90;;;;;;;;;;4974081;28;20331;-41
2022/04/24 10:14:22;;;;;;;2.63;2.00;;;;;;;;;;4977692;28;20185;-40
2022/04/24 10:16:54;;;;;;;2.47;1.60;;;;;;;;;;4976407;28;20336;-40
2022/04/24 10:19:37;;;;;;;2.20;1.27;;;;;;;;;;4976564;28;20194;-41
2022/04/24 10:22:03;;;;;;;2.30;1.47;;;;;;;;;;4973489;28;20196;-42
2022/04/24 10:24:38;;;;;;;1.30;1.20;;;;;;;;;;4978246;28;20608;-42
2022/04/24 10:27:05;;;;;;;1.90;1.20;;;;;;;;;;4979368;28;20720;-42
2022/04/24 10:29:31;;;;;;;2.30;1.60;;;;;;;;;;4980259;28;20193;-42
2022/04/24 10:31:59;;;;;;;1.97;1.77;;;;;;;;;;4976934;28;20681;-41
2022/04/24 10:34:26;;;;;;;3.27;1.70;;;;;;;;;;4976281;28;20173;-43
2022/04/24 10:37:04;;;;;;;3.50;2.00;;;;;;;;;;4977108;28;20193;-43
2022/04/24 10:39:33;;;;;;;2.37;1.90;;;;;;;;;;4974879;28;20594;-43
2022/04/24 10:42:13;;;;;;;1.83;1.40;;;;;;;;;;4974201;28;20170;-43
2022/04/24 10:44:50;;;;;;;1.60;1.50;;;;;;;;;;4977420;28;20824;-43
2022/04/24 10:47:16;;;;;;;3.17;1.80;;;;;;;;;;4973776;28;20197;-43
2022/04/24 10:49:42;;;;;;;2.10;1.43;;;;;;;;;;4974488;28;20592;-44
2022/04/24 10:52:08;;;;;;;3.30;1.67;;;;;;;;;;4977508;28;20187;-44
2022/04/24 10:54:36;;;;;;;1.60;1.40;;;;;;;;;;4979898;28;20263;-44
2022/04/24 10:57:02;;;;;;;3.43;1.60;;;;;;;;;;4976209;28;20186;-45
2022/04/24 10:59:43;;;;;;;1.23;1.13;;;;;;;;;;4975154;28;20201;-44
2022/04/24 11:02:09;;;;;;;2.50;1.40;;;;;;;;;;4978225;28;20926;-45
2022/04/24 11:04:39;;;;;;;1.20;1.10;;;;;;;;;;4980348;28;20243;-45
2022/04/24 11:07:06;;;;;;;2.20;1.20;;;;;;;;;;4977556;28;20186;-46
2022/04/24 11:09:33;;;;;;;1.53;1.10;;;;;;;;;;4974283;28;20272;-46
2022/04/24 11:12:10;;;;;;;1.30;1.00;;;;;;;;;;4977132;28;20512;-46
2022/04/24 11:14:37;;;;;;;2.00;1.10;;;;;;;;;;4979808;28;20177;-46
2022/04/24 11:17:05;;;;;;;1.27;1.10;;;;;;;;;;4976271;28;20197;-46
2022/04/24 11:19:38;;;;;;;1.97;1.20;;;;;;;;;;4977700;28;20197;-46
2022/04/24 11:22:07;;;;;;;1.50;1.10;;;;;;;;;;4976893;28;20176;-46
2022/04/24 11:24:34;;;;;;;1.57;0.93;;;;;;;;;;4974831;28;20160;-46
2022/04/24 11:27:08;;;;;;;0.70;0.70;;;;;;;;;;4975034;28;20536;-46
2022/04/24 11:29:35;;;;;;;0.83;0.60;;;;;;;;;;4979635;28;20391;-46
2022/04/24 11:32:02;;;;;;;0.60;0.60;;;;;;;;;;4977541;28;20181;-46
2022/04/24 11:34:29;;;;;;;1.10;0.70;;;;;;;;;;4979707;28;20550;-46
2022/04/24 11:36:56;;;;;;;1.23;0.70;;;;;;;;;;4977629;28;20220;-46
2022/04/24 11:39:23;;;;;;;0.70;0.70;;;;;;;;;;4975752;28;20384;-46
2022/04/24 11:41:51;;;;;;;3.10;0.80;;;;;;;;;;4979978;28;20173;-46
2022/04/24 11:50:14;;;;;;;0.80;0.73;;;;;;;;;;4978630;28;20246;-46
2022/04/24 11:52:40;;;;;;;1.00;0.80;;;;;;;;;;4977724;28;20227;-46
2022/04/24 11:55:11;;;;;;;0.77;0.70;;;;;;;;;;4979800;28;20970;-46
2022/04/24 11:57:37;;;;;;;1.30;0.83;;;;;;;;;;4973190;28;20183;-46
2022/04/24 12:00:05;;;;;;;0.93;0.87;;;;;;;;;;4974175;28;20556;-46
2022/04/24 12:02:31;;;;;;;2.00;0.80;;;;;;;;;;4973407;28;20181;-46
2022/04/24 12:04:57;;;;;;;0.97;0.87;;;;;;;;;;4979280;28;20568;-46
2022/04/24 12:07:33;;;;;;;1.00;0.70;;;;;;;;;;4974407;28;20961;-46
2022/04/24 12:10:01;;;;;;;1.13;0.90;;;;;;;;;;4976086;28;20609;-46
2022/04/24 12:12:27;;;;;;;0.67;0.67;;;;;;;;;;4974043;28;20174;-46
2022/04/24 12:14:53;;;;;;;1.00;0.70;;;;;;;;;;4978266;28;20173;-46
2022/04/24 12:17:20;;;;;;;1.23;1.00;;;;;;;;;;4975089;28;20224;-46
2022/04/24 12:19:50;;;;;;;1.43;0.97;;;;;;;;;;4975064;28;20197;-46
2022/04/24 12:22:17;;;;;;;1.37;0.70;;;;;;;;;;4978370;28;20528;-46
2022/04/24 12:24:44;;;;;;;1.40;0.90;;;;;;;;;;4975293;28;20594;-46
2022/04/24 12:27:12;;;;;;;1.00;0.70;;;;;;;;;;4972130;28;20729;-46
2022/04/24 12:29:44;;;;;;;1.73;0.70;;;;;;;;;;4991275;28;20177;-46
2022/04/24 12:32:13;;;;;;;1.23;0.70;;;;;;;;;;4973691;28;20587;-46
2022/04/24 12:34:40;;;;;;;1.33;0.90;;;;;;;;;;4977667;28;20173;-46
2022/04/24 12:37:06;;;;;;;2.13;0.80;;;;;;;;;;4976999;28;20737;-46
2022/04/24 12:39:32;;;;;;;1.47;0.70;;;;;;;;;;4971618;28;21030;-46
2022/04/24 12:41:59;;;;;;;2.57;0.70;;;;;;;;;;4974614;28;20243;-46
2022/04/24 12:44:25;;;;;;;0.60;0.60;;;;;;;;;;4978484;28;20180;-46
2022/04/24 12:46:51;;;;;;;0.60;0.60;;;;;;;;;;4972201;28;20169;-46
2022/04/24 12:49:27;;;;;;;0.70;0.70;;;;;;;;;;4974622;28;20717;-46
2022/04/24 12:51:54;;;;;;;1.13;0.80;;;;;;;;;;4974813;28;20176;-46
2022/04/24 12:54:20;;;;;;;1.57;0.60;;;;;;;;;;4973104;28;20173;-46
2022/04/24 12:56:46;;;;;;;1.40;1.20;;;;;;;;;;4975369;28;20491;-46
2022/04/24 12:59:12;;;;;;;0.93;0.70;;;;;;;;;;4975535;28;20464;-46
2022/04/24 13:01:40;;;;;;;0.83;0.70;;;;;;;;;;4975438;28;20211;-46
2022/04/24 13:04:06;;;;;;;0.73;0.60;;;;;;;;;;4973149;28;20192;-46
2022/04/24 13:06:32;;;;;;;2.40;0.80;;;;;;;;;;4974075;28;20767;-46
2022/04/24 13:08:58;;;;;;;0.50;0.50;;;;;;;;;;4975584;28;20494;-46
2022/04/24 13:11:25;;;;;;;1.03;0.70;;;;;;;;;;4976385;28;20473;-46
2022/04/24 13:13:52;;;;;;;0.70;0.70;;;;;;;;;;4975561;28;20188;-46
2022/04/24 13:19:03;;;;;;;2.83;1.20;;;;;;;;;;4977459;28;20874;-45
2022/04/24 13:21:29;;;;;;;2.33;1.27;;;;;;;;;;4973735;28;20184;-46
2022/04/24 13:23:55;;;;;;;1.20;0.90;;;;;;;;;;4973830;28;20180;-46
2022/04/24 13:26:25;;;;;;;2.37;1.10;;;;;;;;;;4977866;28;20168;-46
2022/04/24 13:28:51;;;;;;;0.87;0.77;;;;;;;;;;4976866;28;20177;-46
2022/04/24 13:31:18;;;;;;;2.30;0.83;;;;;;;;;;4977106;28;20508;-46
2022/04/24 13:33:44;;;;;;;2.00;0.87;;;;;;;;;;4974652;28;20613;-46
2022/04/24 13:36:10;;;;;;;1.80;1.00;;;;;;;;;;4975247;28;20189;-44
2022/04/24 13:38:37;;;;;;;1.40;0.50;;;;;;;;;;4977948;28;20193;-46
2022/04/24 13:41:05;;;;;;;0.60;0.60;;;;;;;;;;4975276;28;20177;-45
2022/04/24 13:43:32;;;;;;;0.90;0.80;;;;;;;;;;4973071;28;20702;-46
2022/04/24 13:45:59;;;;;;;1.43;0.70;;;;;;;;;;4975090;28;20604;-46
2022/04/24 13:48:26;;;;;;;1.67;0.60;;;;;;;;;;4975742;28;20317;-46
2022/04/24 13:50:54;;;;;;;1.60;0.87;;;;;;;;;;4975005;28;20260;-46
2022/04/24 13:53:20;;;;;;;1.30;0.70;;;;;;;;;;4974802;28;20932;-45
2022/04/24 13:55:47;;;;;;;1.73;0.77;;;;;;;;;;4982103;28;20585;-46
2022/04/24 13:58:14;;;;;;;0.57;0.50;;;;;;;;;;4979770;28;21009;-46
2022/04/24 14:00:42;;;;;;;1.03;0.70;;;;;;;;;;4977507;28;20164;-47
2022/04/24 14:03:08;;;;;;;0.93;0.70;;;;;;;;;;4979036;28;20174;-47
2022/04/24 14:05:35;;;;;;;0.73;0.60;;;;;;;;;;4980992;28;20180;-47
2022/04/24 14:08:01;;;;;;;0.70;0.70;;;;;;;;;;4977061;28;20173;-46
2022/04/24 14:10:27;;;;;;;1.90;0.60;;;;;;;;;;4976577;28;20390;-47
2022/04/24 14:12:53;;;;;;;0.70;0.70;;;;;;;;;;4976750;28;20201;-47
2022/04/24 14:15:26;;;;;;;2.40;0.60;;;;;;;;;;4979827;28;21042;-47
2022/04/24 14:17:55;;;;;;;0.60;0.60;;;;;;;;;;4973000;28;20193;-46
2022/04/24 14:20:25;;;;;;;1.37;0.73;;;;;;;;;;4977953;28;20581;-47
2022/04/24 14:22:53;;;;;;;0.50;0.50;;;;;;;;;;4980338;28;20169;-47
2022/04/24 14:25:19;;;;;;;1.27;0.70;;;;;;;;;;4979042;28;20269;-46
2022/04/24 14:27:45;;;;;;;1.10;0.70;;;;;;;;;;4990077;28;20211;-46
2022/04/24 14:30:11;;;;;;;0.73;0.70;;;;;;;;;;4975785;28;20208;-46
2022/04/24 14:32:41;;;;;;;1.00;0.50;;;;;;;;;;4994175;28;20969;-45
2022/04/24 14:35:16;;;;;;;1.23;0.70;;;;;;;;;;4981800;28;20486;-45
2022/04/24 14:37:42;;;;;;;0.63;0.53;;;;;;;;;;4976232;28;20224;-45
2022/04/24 14:40:09;;;;;;;0.97;0.50;;;;;;;;;;4974805;28;20204;-46
2022/04/24 14:42:36;;;;;;;0.90;0.53;;;;;;;;;;4979053;28;20247;-46
2022/04/24 14:45:02;;;;;;;2.40;1.00;;;;;;;;;;4979505;28;20582;-45
2022/04/24 14:55:46;;;;;;;1.23;0.50;;;;;;;;;;4977443;28;20364;-46